Bewolking Meer informatie Parkstad Weather Satellite


Neerslagradar Meer informatie Parkstad Rain Snow Radar


Onweersbuien Meer informatie Parkstad Lighntning


24/7 Weercamera Meer informatie Parkstad Weathercam


Natuurbrandrisico
CBI







METAR rapporten vliegvelden

   
EHAM - Amsterdam
Gewijzigd: 08-12-2022 06:25
Kleine regenbuien, Neerslag, Grotendeels bewolkt  
Kleine regenbuien, Neerslag, Grotendeels bewolkt  
   Wind: ZZW 3.7 km/h
Wind: ZZW 3.7 km/h
Temperatuur: 3°C
Dauwpunt: 2°C
Vochtigheid: 93%
Barometer: 1007 hPa
Satelliet beelden: Grotendeels bewolkt
Zicht: meer dan 10 km
Bewolking: Licht bewolkt 366 m,
Licht bewolkt 610 m,
Grotendeels bewolkt 732 m
EHAM 080525Z 20002KT 9999 -SHRA FEW012 FEW020CB BKN024 03/02 Q1007 TEMPO 6000 SHRA
EBAW - Antwerpen
Gewijzigd: 08-12-2022 06:20
  
  
   Wind: varieert Windstil
Wind: varieert Windstil
EBAW 080520Z AUTO /////KT //// R11///// R29///// // VV/// ///// Q////
EGLL - London
Gewijzigd: 08-12-2022 06:20
Helder  
Helder  
   Wind: Westen 3.7 km/h
Wind: Westen 3.7 km/h
Temperatuur: -2°C
Dauwpunt: -3°C
Vochtigheid: 93%
Barometer: 1013 hPa
Satelliet beelden: Helder
Zicht: meer dan 10 km
Bewolking: Helder
EGLL 080520Z AUTO 26002KT 9999 NCD M02/M03 Q1013 NOSIG
ELLX - Luxemburg
Gewijzigd: 08-12-2022 06:20
Grotendeels bewolkt  
Grotendeels bewolkt  
   Wind: Westen 9.3 km/h
Wind: Westen 9.3 km/h
Temperatuur: 2°C
Voelt als: -1°C
Dauwpunt: 1°C
Vochtigheid: 93%
Barometer: 1010 hPa
Satelliet beelden: Grotendeels bewolkt
Zicht: meer dan 10 km
Bewolking: Grotendeels bewolkt 914 m
ELLX 080520Z 28005KT 240V310 9999 BKN030 02/01 Q1010 TEMPO BKN008
EDDM - München
Gewijzigd: 08-12-2022 06:20
Bewolking  
Bewolking  
   Wind: varieert 3.7 km/h
Wind: varieert 3.7 km/h
Temperatuur: 0°C
Dauwpunt: -1°C
Vochtigheid: 93%
Barometer: 1011 hPa
Satelliet beelden: Bewolking
Zicht: meer dan 10 km
Bewolking: Licht bewolkt 488 m,
Bewolking 1433 m
EDDM 080520Z AUTO VRB02KT 9999 FEW016 OVC047 M00/M01 Q1011 NOSIG
LFPO - Parijs
Gewijzigd: 08-12-2022 06:30
Nevel, Grotendeels bewolkt  
Nevel, Grotendeels bewolkt  
   Wind: ZZW 9.3 km/h
Wind: ZZW 9.3 km/h
Temperatuur: 2°C
Voelt als: -1°C
Dauwpunt: 1°C
Vochtigheid: 93%
Barometer: 1012 hPa
Satelliet beelden: Grotendeels bewolkt
Zicht: 4 km
Bewolking: Grotendeels bewolkt 91 m,
Grotendeels bewolkt 1768 m
LFPO 080530Z 21005KT 180V240 4000 BR BKN003 BKN058 02/01 Q1012 TEMPO 0700 FG BKN002
EDDL - Düsseldorf
Gewijzigd: 08-12-2022 06:20
Wat regen mogelijk, Bewolking  
Wat regen mogelijk, Bewolking  
   Wind: WZW 14.8 km/h
Wind: WZW 14.8 km/h
Temperatuur: 4°C
Voelt als: 1°C
Dauwpunt: 3°C
Vochtigheid: 93%
Barometer: 1008 hPa
Satelliet beelden: Bewolking
Zicht: meer dan 10 km
Bewolking: Bewolking 274 m
EDDL 080520Z AUTO 25008KT 9999 -RA OVC009 04/03 Q1008 NOSIG
EDDK - Köln/Bonn Duitsland
Gewijzigd: 08-12-2022 06:50
Grotendeels bewolkt  
Grotendeels bewolkt  
   Wind: WZW 14.8 km/h
Wind: WZW 14.8 km/h
Temperatuur: 4°C
Voelt als: 1°C
Dauwpunt: 2°C
Vochtigheid: 87%
Barometer: 1009 hPa
Satelliet beelden: Grotendeels bewolkt
Zicht: meer dan 10 km
Bewolking: Grotendeels bewolkt 366 m
EDDK 080550Z AUTO 24008KT 9999 BKN012 04/02 Q1009 TEMPO BKN009
TNCA - Oranjestad Aruba
Gewijzigd: 08-12-2022 06:00
Licht bewolkt  
Licht bewolkt  
   Wind: NO 13 km/h
Wind: NO 13 km/h
Temperatuur: 26°C
Dauwpunt: 20°C
Vochtigheid: 70%
Barometer: 1014 hPa
Satelliet beelden: Licht bewolkt
Zicht: meer dan 10 km
Bewolking: Licht bewolkt 518 m
TNCA 080500Z 05007KT 9999 FEW017 26/20 Q1014 NOSIG
TNCC - Willemstad Curacao
Gewijzigd: 08-12-2022 06:00
Nabijgelegen buien, Grotendeels bewolkt  
Nabijgelegen buien, Grotendeels bewolkt  
   Wind: OZO 11.1 km/h
Wind: OZO 11.1 km/h
Temperatuur: 24°C
Dauwpunt: 22°C
Vochtigheid: 89%
Barometer: 1013 hPa
Satelliet beelden: Grotendeels bewolkt
Zicht: meer dan 10 km
Bewolking: Gedeeltelijk bewolkt 518 m,
Grotendeels bewolkt 914 m
TNCC 080500Z 11006KT 070V130 9999 VCSH SCT017TCU BKN030 24/22 Q1013 RERA NOSIG=
LEAL - La Nucia Spanje
Gewijzigd: 08-12-2022 06:30
Gedeeltelijk bewolkt  
Gedeeltelijk bewolkt  
   Wind: Windstil
Wind: Windstil
Temperatuur: 11°C
Dauwpunt: 11°C
Vochtigheid: 100%
Barometer: 1008 hPa
Satelliet beelden: Gedeeltelijk bewolkt
Zicht: meer dan 10 km
Bewolking: Licht bewolkt 488 m,
Gedeeltelijk bewolkt 975 m
LEAL 080530Z 00000KT 9999 FEW016 SCT032 11/11 Q1008 NOSIG
 

Script ontwikkeld door  Saratoga-weather.org Aangepast voor de template door  Weerstation Leuven

U vindt ons ook hier:

Het Weer Aktueel

WOW Nederland KNMI

Vereniging voor Weerkunde en Klimatologie

UK Met Office Weather Observation Website (WOW)

WeatherCloud

Weather Underground

Awekas

MeteoMap.Cloud

HAMweather, WeatherForYou, PWS Weather

Citizen Weather Observer Program (CWOP)

Apparatuur in gebruik:

Hardwareleverancier
Weerhuisje

Weerstation
Vantage Pro2+ UV

Weercomputer's
alix3d2 & wl330n

Weerprogramma's
Smartbedded

Satelliet NOAA's
WRX137 & KX137

Satelliet Eumetsat
Ayecka SR1 & Triax

Bliksemdetectie
Boltek StormTracker

Webleverancier
F-Service

Weerhuisje

Vantage Pro2+ UV

alix3d2 & wl330n

Smartbedded

WRX137 & KX137

Ayecka SR1 & Triax

Boltek StormTracker

F-Service